createdAt,value
2022-12-06T00:03:47.853Z,0.40
2022-12-06T00:08:55.145Z,0.53
2022-12-06T00:14:05.480Z,0.40
2022-12-06T00:19:14.810Z,0.40
2022-12-06T00:24:23.863Z,0.30
2022-12-06T00:29:30.825Z,0.50
2022-12-06T00:34:37.722Z,0.37
2022-12-06T00:39:44.500Z,0.40
2022-12-06T00:44:51.339Z,0.47
2022-12-06T00:49:58.518Z,0.40
2022-12-06T00:55:06.136Z,0.40
2022-12-06T01:00:13.619Z,0.40
2022-12-06T01:05:20.338Z,0.50
2022-12-06T01:10:27.588Z,0.40
2022-12-06T01:15:36.019Z,0.40
2022-12-06T01:20:42.914Z,0.30
2022-12-06T01:25:52.242Z,0.40
2022-12-06T01:30:59.202Z,0.40
2022-12-06T01:36:06.763Z,0.40
2022-12-06T01:41:13.542Z,0.40
2022-12-06T01:46:23.520Z,0.30
2022-12-06T01:51:30.976Z,0.40
2022-12-06T01:56:39.755Z,0.30
2022-12-06T02:01:48.679Z,0.30
2022-12-06T02:06:56.825Z,0.43
2022-12-06T02:12:03.727Z,0.40
2022-12-06T02:17:14.866Z,0.40
2022-12-06T02:22:24.843Z,0.40
2022-12-06T02:27:34.852Z,0.30
2022-12-06T02:32:42.980Z,0.30
2022-12-06T02:37:52.811Z,0.30
2022-12-06T02:43:02.572Z,0.40
2022-12-06T02:48:11.497Z,0.40
2022-12-06T02:53:21.135Z,0.40
2022-12-06T02:58:28.363Z,0.30
2022-12-06T03:03:38.124Z,0.30
2022-12-06T03:08:46.094Z,0.37
2022-12-06T03:13:55.145Z,0.40
2022-12-06T03:19:03.398Z,0.30
2022-12-06T03:24:13.740Z,0.43
2022-12-06T03:29:24.068Z,0.37
2022-12-06T03:34:33.868Z,0.40
2022-12-06T03:39:43.858Z,0.40
2022-12-06T03:44:50.875Z,0.40
2022-12-06T03:50:00.899Z,0.30
2022-12-06T03:55:08.920Z,0.40
2022-12-06T04:00:16.997Z,0.40
2022-12-06T04:05:24.068Z,0.40
2022-12-06T04:10:30.873Z,0.40
2022-12-06T04:15:40.046Z,0.40
2022-12-06T04:20:49.741Z,0.30
2022-12-06T04:25:57.244Z,0.37
2022-12-06T04:31:05.833Z,0.40
2022-12-06T04:36:14.311Z,0.40
2022-12-06T04:41:22.848Z,0.47
2022-12-06T04:46:29.825Z,0.30
2022-12-06T04:51:37.243Z,0.40
2022-12-06T04:56:43.915Z,0.40
2022-12-06T05:01:50.932Z,0.43
2022-12-06T05:06:57.788Z,0.40
2022-12-06T05:12:04.735Z,0.50
2022-12-06T05:17:11.541Z,0.40
2022-12-06T05:22:18.398Z,0.40
2022-12-06T05:27:25.212Z,0.40
2022-12-06T05:32:32.251Z,0.40
2022-12-06T05:37:39.186Z,0.60
2022-12-06T05:42:46.102Z,0.40
2022-12-06T05:47:52.840Z,0.40
2022-12-06T05:53:01.271Z,0.93
2022-12-06T05:58:08.616Z,6.57
2022-12-06T06:03:16.329Z,4.60
2022-12-06T06:08:23.386Z,1.90
2022-12-06T06:13:30.819Z,2.03
2022-12-06T06:18:37.629Z,1.27
2022-12-06T06:23:44.514Z,1.30
2022-12-06T06:28:51.955Z,1.30
2022-12-06T06:33:58.989Z,1.40
2022-12-06T06:39:05.853Z,1.43
2022-12-06T06:44:13.220Z,0.90
2022-12-06T06:49:20.042Z,0.57
2022-12-06T06:54:28.302Z,0.50
2022-12-06T06:59:35.060Z,0.80
2022-12-06T07:04:42.500Z,3.90
2022-12-06T07:09:49.573Z,6.30
2022-12-06T07:14:56.583Z,6.30
2022-12-06T07:20:03.811Z,1.80
2022-12-06T07:25:11.032Z,1.00
2022-12-06T07:30:22.777Z,0.40
2022-12-06T07:35:48.491Z,0.50
2022-12-06T07:41:05.559Z,0.57
2022-12-06T07:45:45.494Z,0.60
2022-12-06T07:50:52.583Z,4.00
2022-12-06T07:55:59.379Z,5.67
2022-12-06T08:01:06.422Z,5.13
2022-12-06T08:06:13.331Z,4.70
2022-12-06T08:11:22.268Z,4.50
2022-12-06T08:16:29.245Z,2.50
2022-12-06T08:21:36.452Z,13.57
2022-12-06T08:26:43.248Z,11.67
2022-12-06T08:31:50.937Z,4.33
2022-12-06T08:37:03.027Z,7.00
2022-12-06T08:42:07.805Z,6.87
2022-12-06T08:47:14.579Z,7.17
2022-12-06T08:52:33.710Z,10.43
2022-12-06T08:57:40.624Z,3.80
2022-12-06T09:02:48.586Z,0.80
2022-12-06T09:07:55.600Z,0.70
2022-12-06T09:13:02.474Z,0.90
2022-12-06T09:18:09.409Z,1.20
2022-12-06T09:23:16.347Z,1.73
2022-12-06T09:28:23.131Z,0.70
2022-12-06T09:33:29.943Z,0.60
2022-12-06T09:38:40.187Z,0.90
2022-12-06T09:43:49.309Z,0.90
2022-12-06T09:48:57.558Z,0.63
2022-12-06T09:54:06.603Z,0.50
2022-12-06T09:59:16.574Z,0.30
2022-12-06T10:04:26.343Z,0.80
2022-12-06T10:09:34.483Z,0.90
2022-12-06T10:14:43.512Z,1.60
2022-12-06T10:19:53.352Z,4.93
2022-12-06T10:25:03.456Z,3.27
2022-12-06T10:30:13.242Z,4.17
2022-12-06T10:35:23.081Z,3.77
2022-12-06T10:40:31.393Z,3.17
2022-12-06T10:45:43.085Z,2.33
2022-12-06T10:50:53.556Z,1.30
2022-12-06T10:56:03.468Z,1.30
2022-12-06T11:01:13.408Z,1.00
2022-12-06T11:06:23.164Z,1.00
2022-12-06T11:11:32.937Z,0.83
2022-12-06T11:16:43.047Z,1.00
2022-12-06T11:21:53.542Z,0.67
2022-12-06T11:27:04.918Z,0.70
2022-12-06T11:32:14.846Z,0.57
2022-12-06T11:37:24.721Z,0.63
2022-12-06T11:42:31.642Z,0.60
2022-12-06T11:47:38.464Z,0.50
2022-12-06T11:52:48.463Z,0.50
2022-12-06T11:57:58.205Z,0.50
2022-12-06T12:03:05.213Z,0.40
2022-12-06T12:08:15.332Z,0.40
2022-12-06T12:13:25.657Z,0.50
2022-12-06T12:18:35.401Z,0.60
2022-12-06T12:23:45.642Z,0.40
2022-12-06T12:28:55.424Z,0.70
2022-12-06T12:34:05.311Z,0.73
2022-12-06T12:39:15.154Z,1.07
2022-12-06T12:44:39.249Z,1.10
2022-12-06T12:49:34.758Z,1.10
2022-12-06T12:54:42.520Z,0.80
2022-12-06T12:59:49.404Z,0.70
2022-12-06T13:05:17.346Z,0.50
2022-12-06T13:10:08.816Z,0.73
2022-12-06T13:15:19.585Z,1.10
2022-12-06T13:20:29.619Z,0.73
2022-12-06T13:25:37.856Z,0.80
2022-12-06T13:30:47.093Z,0.80
2022-12-06T13:35:57.019Z,0.80
2022-12-06T13:41:06.997Z,0.90
2022-12-06T13:46:16.946Z,1.00
2022-12-06T13:51:26.919Z,1.50
2022-12-06T13:56:35.172Z,1.00
2022-12-06T14:01:45.062Z,0.70
2022-12-06T14:06:55.305Z,0.57
2022-12-06T14:12:03.704Z,0.50
2022-12-06T14:17:26.785Z,0.40
2022-12-06T14:22:23.230Z,0.53
2022-12-06T14:27:33.629Z,0.50
2022-12-06T14:32:43.569Z,0.50
2022-12-06T14:37:53.573Z,0.43
2022-12-06T14:43:03.941Z,1.90
2022-12-06T14:48:13.010Z,10.13
2022-12-06T14:53:23.024Z,8.47
2022-12-06T14:58:33.151Z,21.10
2022-12-06T15:03:41.123Z,9.60
2022-12-06T15:08:55.152Z,3.23
2022-12-06T15:14:01.329Z,4.40
2022-12-06T15:19:11.503Z,3.83
2022-12-06T15:24:21.940Z,1.57
2022-12-06T15:29:29.397Z,4.03
2022-12-06T15:34:39.738Z,2.90
2022-12-06T15:39:47.082Z,3.87
2022-12-06T15:44:56.342Z,3.07
2022-12-06T15:50:04.599Z,1.50
2022-12-06T15:55:15.055Z,1.57
2022-12-06T16:00:22.360Z,1.90
2022-12-06T16:05:29.660Z,1.03
2022-12-06T16:11:03.381Z,0.70
2022-12-06T16:15:46.229Z,0.50
2022-12-06T16:20:53.643Z,0.40
2022-12-06T16:26:00.782Z,0.40
2022-12-06T16:31:09.048Z,0.40
2022-12-06T16:36:19.303Z,0.57
2022-12-06T16:41:35.386Z,4.57
2022-12-06T16:46:42.867Z,1.90
2022-12-06T16:51:50.597Z,2.63
2022-12-06T16:56:57.599Z,3.37
2022-12-06T17:02:11.710Z,1.20
2022-12-06T17:07:15.012Z,1.27
2022-12-06T17:12:22.313Z,0.80
2022-12-06T17:17:29.657Z,1.60
2022-12-06T17:22:37.055Z,0.90
2022-12-06T17:27:45.056Z,0.80
2022-12-06T17:32:52.939Z,0.57
2022-12-06T17:38:01.297Z,0.60
2022-12-06T17:43:10.506Z,0.60
2022-12-06T17:48:17.903Z,0.70
2022-12-06T17:53:25.624Z,0.60
2022-12-06T17:58:32.433Z,0.60
2022-12-06T18:03:39.818Z,1.00
2022-12-06T18:08:48.165Z,1.90
2022-12-06T18:13:57.320Z,1.50
2022-12-06T18:19:08.694Z,1.20
2022-12-06T18:24:23.197Z,1.60
2022-12-06T18:29:26.976Z,1.80
2022-12-06T18:34:34.194Z,5.53
2022-12-06T18:39:41.800Z,8.73
2022-12-06T18:44:51.437Z,1.80
2022-12-06T18:49:57.742Z,1.20
2022-12-06T18:55:05.112Z,1.40
2022-12-06T19:00:13.505Z,1.10
2022-12-06T19:05:46.058Z,1.73
2022-12-06T19:10:32.612Z,1.20
2022-12-06T19:15:40.020Z,0.80
2022-12-06T19:20:50.537Z,0.60
2022-12-06T19:26:01.263Z,0.60
2022-12-06T19:31:12.634Z,0.50
2022-12-06T19:36:23.242Z,0.50
2022-12-06T19:41:31.323Z,1.20
2022-12-06T19:46:43.464Z,1.90
2022-12-06T19:51:51.451Z,0.70
2022-12-06T19:57:01.568Z,0.70
2022-12-06T20:02:10.928Z,0.70
2022-12-06T20:07:19.125Z,0.53
2022-12-06T20:12:27.030Z,0.87
2022-12-06T20:17:34.543Z,1.00
2022-12-06T20:22:46.098Z,1.40
2022-12-06T20:27:53.266Z,0.83
2022-12-06T20:33:00.575Z,0.90
2022-12-06T20:38:07.824Z,1.30
2022-12-06T20:43:15.408Z,1.00
2022-12-06T20:48:23.104Z,0.97
2022-12-06T20:53:31.348Z,1.20
2022-12-06T20:58:38.574Z,1.20
2022-12-06T21:03:45.633Z,0.90
2022-12-06T21:08:54.124Z,0.60
2022-12-06T21:14:00.982Z,0.47
2022-12-06T21:19:10.352Z,0.40
2022-12-06T21:24:20.270Z,0.50
2022-12-06T21:29:31.002Z,0.50
2022-12-06T21:34:35.717Z,0.40
2022-12-06T21:39:44.462Z,0.40
2022-12-06T21:44:51.384Z,0.40
2022-12-06T21:49:58.484Z,0.50
2022-12-06T21:55:06.539Z,0.50
2022-12-06T22:00:15.863Z,0.47
2022-12-06T22:05:22.732Z,0.43
2022-12-06T22:10:29.592Z,0.40
2022-12-06T22:15:38.985Z,0.53
2022-12-06T22:20:45.941Z,0.40
2022-12-06T22:25:52.859Z,0.50
2022-12-06T22:31:02.872Z,0.50
2022-12-06T22:36:10.672Z,0.40
2022-12-06T22:41:17.741Z,0.50
2022-12-06T22:46:26.843Z,0.50
2022-12-06T22:51:36.895Z,0.50
2022-12-06T22:56:46.913Z,0.57
2022-12-06T23:01:53.934Z,0.50
2022-12-06T23:07:01.119Z,0.50
2022-12-06T23:12:08.535Z,0.50
2022-12-06T23:17:16.934Z,0.60
2022-12-06T23:22:25.165Z,0.63
2022-12-06T23:27:32.047Z,0.60
2022-12-06T23:32:39.243Z,0.50
2022-12-06T23:37:46.033Z,0.50
2022-12-06T23:42:53.168Z,0.50
2022-12-06T23:48:00.099Z,0.40
2022-12-06T23:53:07.033Z,0.57
2022-12-06T23:58:14.176Z,0.60
